Time;durP1;ratioP1;P1;durP2;ratioP2;P2;SDS_P1;SDS_P2;PMS_P1;PMS_P2;Temp;Humidity;BMP_temperature;BMP_pressure;BME280_temperature;BME280_humidity;BME280_pressure;Samples;Min_cycle;Max_cycle;Signal;HPM_P1;HPM_P2
2023/11/06 00:02:09;;;;;;;3.95;1.95;;;10.30;98.40;;;;;;5037693;28;20045;-90
2023/11/06 00:04:35;;;;;;;2.95;1.10;;;10.30;98.60;;;;;;5035106;28;20021;-89
2023/11/06 00:07:00;;;;;;;4.35;2.30;;;10.30;98.60;;;;;;5035693;28;20049;-92
2023/11/06 00:09:26;;;;;;;3.38;1.55;;;10.40;98.40;;;;;;5035174;28;20030;-92
2023/11/06 00:11:52;;;;;;;3.63;1.40;;;10.40;98.40;;;;;;5034336;28;20030;-90
2023/11/06 00:14:17;;;;;;;2.05;1.85;;;10.40;97.70;;;;;;5027283;28;20280;-92
2023/11/06 00:16:43;;;;;;;6.10;1.60;;;10.40;97.80;;;;;;5022471;28;20526;-94
2023/11/06 00:19:09;;;;;;;6.95;1.88;;;10.40;98.10;;;;;;5031689;28;20084;-90
2023/11/06 00:21:36;;;;;;;2.65;2.35;;;10.40;98.30;;;;;;5032816;28;20093;-90
2023/11/06 00:24:01;;;;;;;5.88;1.73;;;10.40;97.70;;;;;;5032613;28;20026;-91
2023/11/06 00:26:27;;;;;;;4.88;1.85;;;10.50;97.70;;;;;;5034080;28;20030;-91
2023/11/06 00:28:53;;;;;;;2.72;1.60;;;10.50;98.00;;;;;;5034109;28;20061;-91
2023/11/06 00:31:22;;;;;;;6.78;1.58;;;10.50;98.10;;;;;;5035000;28;20056;-91
2023/11/06 00:33:48;;;;;;;5.50;1.63;;;10.60;97.60;;;;;;5035260;28;20116;-92
2023/11/06 00:36:22;;;;;;;6.10;1.20;;;10.50;97.50;;;;;;5035077;28;20025;-92
2023/11/06 00:38:51;;;;;;;5.40;2.08;;;10.60;97.60;;;;;;5033805;28;20117;-93
2023/11/06 00:41:17;;;;;;;4.05;2.33;;;10.60;96.90;;;;;;5033963;28;20081;-91
2023/11/06 00:43:42;;;;;;;6.07;1.60;;;10.70;96.80;;;;;;5035047;28;20060;-92
2023/11/06 00:46:08;;;;;;;5.93;1.67;;;10.70;97.10;;;;;;5034069;28;20089;-92
2023/11/06 00:48:34;;;;;;;8.70;2.00;;;10.70;97.10;;;;;;5034985;28;20033;-91
2023/11/06 00:51:00;;;;;;;4.28;2.00;;;10.70;97.70;;;;;;5032268;28;20048;-92
2023/11/06 00:53:26;;;;;;;6.45;2.35;;;10.70;97.00;;;;;;5023703;28;20084;-92
2023/11/06 00:55:52;;;;;;;3.80;1.83;;;10.70;96.40;;;;;;5033232;28;20029;-90
2023/11/06 00:58:21;;;;;;;4.30;1.80;;;10.70;96.80;;;;;;5033766;28;20030;-93
2023/11/06 01:00:46;;;;;;;7.45;2.17;;;10.70;97.00;;;;;;5033483;28;20036;-89
2023/11/06 01:03:12;;;;;;;3.30;1.35;;;10.70;96.80;;;;;;5035518;28;20026;-91
2023/11/06 01:05:38;;;;;;;2.70;1.70;;;10.70;96.80;;;;;;5033962;28;20021;-91
2023/11/06 01:08:05;;;;;;;5.88;1.73;;;10.70;97.10;;;;;;5028869;28;20033;-90
2023/11/06 01:10:35;;;;;;;6.93;1.88;;;10.80;96.80;;;;;;5029344;28;20072;-92
2023/11/06 01:13:01;;;;;;;4.95;2.08;;;10.80;96.60;;;;;;5033722;28;20049;-91
2023/11/06 01:15:27;;;;;;;3.60;1.73;;;10.80;96.80;;;;;;5032486;28;20491;-92
2023/11/06 01:17:53;;;;;;;4.15;1.67;;;10.80;96.80;;;;;;5032213;28;20132;-91
2023/11/06 01:20:20;;;;;;;7.10;1.50;;;10.80;97.10;;;;;;5032968;28;20045;-91
2023/11/06 01:22:47;;;;;;;7.38;1.52;;;10.80;97.10;;;;;;5033849;28;20018;-91
2023/11/06 01:25:13;;;;;;;5.22;1.55;;;10.80;96.80;;;;;;5032773;28;20073;-93
2023/11/06 01:27:39;;;;;;;3.83;1.52;;;10.80;97.50;;;;;;5033392;28;20017;-91
2023/11/06 01:30:05;;;;;;;3.03;1.27;;;10.80;96.40;;;;;;5032912;28;20129;-90
2023/11/06 01:32:30;;;;;;;1.77;1.13;;;10.80;96.10;;;;;;5034454;28;20033;-91
2023/11/06 01:34:56;;;;;;;5.60;1.55;;;10.80;96.10;;;;;;5033882;28;20021;-90
2023/11/06 01:37:22;;;;;;;6.25;1.52;;;10.90;96.10;;;;;;5034859;28;20080;-92
2023/11/06 01:39:47;;;;;;;5.05;1.45;;;10.80;96.10;;;;;;5034267;28;20037;-90
2023/11/06 01:42:13;;;;;;;5.45;1.92;;;10.90;97.30;;;;;;5034496;28;20101;-92
2023/11/06 01:44:39;;;;;;;2.30;1.50;;;10.80;99.40;;;;;;5033544;28;20028;-91
2023/11/06 01:47:09;;;;;;;4.40;1.20;;;10.70;99.20;;;;;;5034393;28;20053;-91
2023/11/06 01:49:35;;;;;;;4.88;1.50;;;10.60;99.90;;;;;;5034717;28;20053;-93
2023/11/06 01:52:03;;;;;;;3.92;1.38;;;10.60;98.90;;;;;;5033686;28;20030;-90
2023/11/06 01:54:30;;;;;;;3.83;1.30;;;10.60;98.10;;;;;;5034099;28;20218;-92
2023/11/06 01:56:56;;;;;;;4.40;1.45;;;10.70;97.90;;;;;;5032791;28;20091;-91
2023/11/06 01:59:25;;;;;;;2.58;1.55;;;10.60;98.70;;;;;;5032875;28;20419;-90
2023/11/06 02:01:55;;;;;;;4.38;2.40;;;10.50;99.90;;;;;;5032182;28;20275;-91
2023/11/06 02:04:21;;;;;;;3.83;1.25;;;10.50;99.90;;;;;;5032166;28;20026;-89
2023/11/06 02:06:48;;;;;;;3.05;1.50;;;10.40;99.90;;;;;;5031517;28;20237;-90
2023/11/06 02:09:13;;;;;;;3.55;1.67;;;10.30;99.90;;;;;;5030268;28;20044;-90
2023/11/06 02:11:39;;;;;;;3.35;1.20;;;10.30;99.90;;;;;;5030915;28;20030;-90
2023/11/06 02:14:05;;;;;;;4.18;1.77;;;10.20;99.90;;;;;;5025341;28;20520;-91
2023/11/06 02:16:31;;;;;;;2.65;1.00;;;10.20;99.90;;;;;;5023199;28;20025;-90
2023/11/06 02:18:57;;;;;;;6.45;1.45;;;10.10;99.90;;;;;;5033988;28;20021;-91
2023/11/06 02:21:23;;;;;;;5.70;1.67;;;10.10;99.90;;;;;;5036079;28;20035;-90
2023/11/06 02:23:49;;;;;;;1.40;1.15;;;10.00;99.90;;;;;;5036503;28;20116;-90
2023/11/06 02:26:15;;;;;;;3.63;2.63;;;10.00;99.90;;;;;;5037459;28;20396;-89
2023/11/06 02:28:41;;;;;;;3.47;1.85;;;9.90;99.90;;;;;;5036305;28;20044;-90
2023/11/06 02:31:06;;;;;;;2.60;1.15;;;9.80;99.90;;;;;;5036920;28;20029;-92
2023/11/06 02:33:32;;;;;;;4.35;2.28;;;9.90;99.90;;;;;;5037552;28;20523;-91
2023/11/06 02:35:57;;;;;;;7.90;1.40;;;9.80;99.90;;;;;;5037488;28;20029;-90
2023/11/06 02:38:23;;;;;;;2.22;1.08;;;9.80;99.90;;;;;;5037106;28;20032;-88
2023/11/06 02:40:49;;;;;;;1.88;1.23;;;9.70;99.90;;;;;;5036935;28;20037;-90
2023/11/06 02:43:14;;;;;;;2.25;1.00;;;9.70;99.90;;;;;;5037287;28;20068;-89
2023/11/06 02:45:40;;;;;;;1.88;1.23;;;9.60;99.90;;;;;;5037456;28;20033;-90
2023/11/06 02:48:06;;;;;;;4.38;1.00;;;9.70;99.90;;;;;;5039278;28;20040;-89
2023/11/06 02:50:31;;;;;;;3.75;1.58;;;9.70;99.90;;;;;;5038017;28;20027;-90
2023/11/06 02:52:58;;;;;;;4.18;1.38;;;9.60;99.90;;;;;;5038112;28;20064;-90
2023/11/06 02:55:24;;;;;;;3.30;1.23;;;9.70;99.90;;;;;;5037945;28;20109;-90
2023/11/06 02:57:49;;;;;;;4.20;1.42;;;9.70;99.90;;;;;;5036960;28;20089;-91
2023/11/06 03:00:15;;;;;;;2.35;1.92;;;9.70;99.90;;;;;;5037057;28;20022;-90
2023/11/06 03:02:41;;;;;;;2.67;1.15;;;9.70;99.90;;;;;;5036139;28;20025;-91
2023/11/06 03:05:07;;;;;;;1.85;1.30;;;9.70;99.90;;;;;;5035395;28;20030;-89
2023/11/06 03:07:35;;;;;;;2.45;0.82;;;9.70;99.90;;;;;;5050564;28;20563;-90
2023/11/06 03:10:02;;;;;;;5.00;1.65;;;9.70;99.90;;;;;;5034525;28;20033;-90
2023/11/06 03:12:28;;;;;;;3.22;1.52;;;9.70;99.90;;;;;;5035273;28;20025;-90
2023/11/06 03:14:54;;;;;;;1.83;1.17;;;9.70;99.90;;;;;;5037143;28;20387;-89
2023/11/06 03:17:20;;;;;;;3.35;1.40;;;9.70;99.90;;;;;;5053169;28;20029;-90
2023/11/06 03:19:46;;;;;;;4.35;1.40;;;9.70;99.90;;;;;;5036420;28;20032;-92
2023/11/06 03:22:12;;;;;;;3.95;1.65;;;9.70;99.90;;;;;;5037324;28;20159;-89
2023/11/06 03:24:37;;;;;;;3.05;1.67;;;9.70;99.90;;;;;;5036186;28;20033;-89
2023/11/06 03:27:03;;;;;;;10.40;1.63;;;9.70;99.90;;;;;;5034525;28;20033;-89
2023/11/06 03:29:29;;;;;;;3.33;1.50;;;9.60;99.90;;;;;;5035124;28;20042;-90
2023/11/06 03:31:54;;;;;;;5.22;1.58;;;9.60;99.90;;;;;;5036101;28;20491;-89
2023/11/06 03:34:20;;;;;;;3.70;1.77;;;9.50;99.90;;;;;;5036550;28;20049;-90
2023/11/06 03:36:46;;;;;;;4.93;1.42;;;9.50;99.90;;;;;;5036401;28;20022;-89
2023/11/06 03:39:14;;;;;;;5.15;2.13;;;9.50;99.90;;;;;;5035170;28;20025;-91
2023/11/06 03:41:40;;;;;;;4.03;1.48;;;9.50;99.90;;;;;;5035833;28;20025;-91
2023/11/06 03:44:06;;;;;;;4.95;1.80;;;9.50;99.90;;;;;;5034954;28;20037;-90
2023/11/06 03:46:32;;;;;;;6.75;1.75;;;9.40;99.90;;;;;;5034758;28;20026;-91
2023/11/06 03:48:58;;;;;;;3.63;1.55;;;9.40;99.90;;;;;;5034683;28;20484;-90
2023/11/06 03:51:23;;;;;;;3.15;2.05;;;9.40;99.90;;;;;;5035580;28;20034;-87
2023/11/06 03:53:49;;;;;;;4.80;1.20;;;9.40;99.90;;;;;;5035968;28;20029;-91
2023/11/06 03:56:15;;;;;;;2.83;1.70;;;9.30;99.90;;;;;;5035151;28;20096;-90
2023/11/06 03:58:41;;;;;;;3.17;1.50;;;9.40;99.90;;;;;;5033161;28;20018;-92
2023/11/06 04:01:06;;;;;;;2.10;1.63;;;9.40;99.90;;;;;;5033425;28;20234;-90
2023/11/06 04:03:32;;;;;;;3.95;1.65;;;9.50;99.90;;;;;;5034291;28;20052;-90
2023/11/06 04:05:59;;;;;;;2.10;1.10;;;9.50;99.90;;;;;;5033614;28;20030;-91
2023/11/06 04:08:24;;;;;;;3.60;1.10;;;9.50;99.90;;;;;;5031995;28;20117;-91
2023/11/06 04:10:51;;;;;;;3.10;2.22;;;9.50;99.90;;;;;;5033566;28;20053;-90
2023/11/06 04:13:16;;;;;;;5.07;1.92;;;9.60;99.90;;;;;;5036729;28;20025;-88
2023/11/06 04:15:42;;;;;;;5.00;1.80;;;9.60;99.90;;;;;;5035002;28;20025;-89
2023/11/06 04:18:08;;;;;;;3.28;1.75;;;9.60;99.90;;;;;;5035006;28;20049;-91
2023/11/06 04:20:35;;;;;;;4.68;1.30;;;9.60;99.90;;;;;;5033736;28;20496;-91
2023/11/06 04:23:00;;;;;;;2.28;1.20;;;9.70;99.90;;;;;;5034900;28;20028;-91
2023/11/06 04:25:26;;;;;;;4.32;1.08;;;9.70;99.90;;;;;;5034444;28;20100;-87
2023/11/06 04:27:52;;;;;;;2.53;1.17;;;9.60;99.90;;;;;;5035514;28;20075;-89
2023/11/06 04:30:17;;;;;;;2.55;1.23;;;9.70;99.90;;;;;;5035106;28;20049;-90
2023/11/06 04:32:43;;;;;;;5.35;1.33;;;9.70;99.90;;;;;;5033167;28;20037;-90
2023/11/06 04:35:09;;;;;;;3.05;1.13;;;9.70;99.90;;;;;;5034509;28;20018;-91
2023/11/06 04:37:36;;;;;;;3.13;1.45;;;9.70;99.90;;;;;;5034553;28;20091;-89
2023/11/06 04:40:03;;;;;;;3.63;1.60;;;9.70;99.90;;;;;;5034623;28;20013;-89
2023/11/06 04:42:28;;;;;;;3.95;1.13;;;9.70;99.90;;;;;;5034111;28;20368;-89
2023/11/06 04:44:54;;;;;;;3.30;1.10;;;9.70;99.90;;;;;;5034091;28;20040;-91
2023/11/06 04:47:20;;;;;;;3.42;1.25;;;9.70;99.90;;;;;;5035103;28;20025;-90
2023/11/06 04:49:45;;;;;;;3.00;1.45;;;9.70;99.90;;;;;;5034378;28;20381;-91
2023/11/06 04:52:11;;;;;;;2.92;1.05;;;9.70;99.90;;;;;;5034052;28;20033;-90
2023/11/06 04:54:41;;;;;;;4.07;1.15;;;9.70;99.90;;;;;;5032575;28;20022;-90
2023/11/06 04:57:06;;;;;;;3.65;1.10;;;9.60;99.90;;;;;;5023516;28;20095;-91
2023/11/06 04:59:32;;;;;;;7.88;1.63;;;9.60;99.90;;;;;;5032945;28;20025;-91
2023/11/06 05:01:57;;;;;;;2.92;1.20;;;9.70;99.90;;;;;;5031848;28;20040;-90
2023/11/06 05:04:23;;;;;;;3.90;1.48;;;9.70;99.90;;;;;;5030409;28;20025;-94
2023/11/06 05:06:49;;;;;;;3.28;1.42;;;9.70;99.90;;;;;;5032903;28;20045;-93
2023/11/06 05:09:14;;;;;;;4.28;1.98;;;9.70;99.90;;;;;;5033609;28;20022;-90
2023/11/06 05:11:40;;;;;;;3.70;2.03;;;9.70;99.90;;;;;;5033473;28;20029;-90
2023/11/06 05:14:06;;;;;;;1.65;1.17;;;9.70;99.90;;;;;;5033981;28;20030;-92
2023/11/06 05:16:31;;;;;;;3.60;0.93;;;9.70;99.90;;;;;;5033118;28;20083;-91
2023/11/06 05:18:57;;;;;;;3.30;2.20;;;9.70;99.90;;;;;;5032953;28;20090;-91
2023/11/06 05:21:25;;;;;;;7.75;2.42;;;9.70;99.90;;;;;;5033755;28;20052;-90
2023/11/06 05:23:51;;;;;;;4.55;1.38;;;9.80;99.90;;;;;;5033399;28;20021;-90
2023/11/06 05:26:17;;;;;;;2.90;1.85;;;9.80;99.90;;;;;;5029432;28;20445;-90
2023/11/06 05:28:43;;;;;;;3.50;1.45;;;9.80;99.90;;;;;;5024026;28;20037;-90
2023/11/06 05:31:09;;;;;;;3.08;1.95;;;9.80;99.90;;;;;;5035540;28;20033;-93
2023/11/06 05:33:36;;;;;;;2.60;0.93;;;9.80;99.90;;;;;;5035100;28;20017;-90
2023/11/06 05:36:02;;;;;;;3.00;1.38;;;9.90;99.90;;;;;;5034487;28;20029;-91
2023/11/06 05:38:28;;;;;;;2.90;2.20;;;9.90;99.90;;;;;;5032426;28;20021;-90
2023/11/06 05:40:53;;;;;;;3.33;1.08;;;9.90;99.90;;;;;;5034430;28;20032;-89
2023/11/06 05:43:19;;;;;;;2.33;1.13;;;9.80;99.90;;;;;;5032764;28;20499;-89
2023/11/06 05:45:45;;;;;;;2.33;1.40;;;9.90;99.90;;;;;;5034512;28;20048;-90
2023/11/06 05:48:10;;;;;;;3.88;1.73;;;9.90;99.90;;;;;;5034447;28;20025;-91
2023/11/06 05:50:36;;;;;;;4.55;1.27;;;9.90;99.90;;;;;;5026207;28;20025;-89
2023/11/06 05:53:02;;;;;;;2.33;1.95;;;9.90;99.90;;;;;;5036774;28;20072;-89
2023/11/06 05:55:28;;;;;;;3.42;1.50;;;9.90;99.90;;;;;;5029232;28;20037;-90
2023/11/06 05:57:53;;;;;;;5.20;1.02;;;9.90;99.90;;;;;;5033244;28;20017;-89
2023/11/06 06:00:20;;;;;;;4.80;1.20;;;9.90;99.90;;;;;;5030883;28;20071;-91
2023/11/06 06:02:45;;;;;;;2.58;1.45;;;9.80;99.90;;;;;;5039533;28;20488;-90
2023/11/06 06:05:11;;;;;;;7.07;1.88;;;9.80;99.90;;;;;;5039179;28;20041;-90
2023/11/06 06:07:37;;;;;;;3.67;1.05;;;9.80;99.90;;;;;;5039551;28;20021;-91
2023/11/06 06:10:04;;;;;;;3.45;1.23;;;9.80;99.90;;;;;;5036308;28;20060;-92
2023/11/06 06:12:33;;;;;;;3.67;2.08;;;9.80;99.90;;;;;;5037627;28;20045;-90
2023/11/06 06:14:59;;;;;;;3.40;1.27;;;9.80;99.90;;;;;;5037744;28;20109;-92
2023/11/06 06:17:25;;;;;;;1.70;0.95;;;9.80;99.90;;;;;;5038039;28;20021;-90
2023/11/06 06:19:51;;;;;;;3.60;1.05;;;9.70;99.90;;;;;;5037753;28;20097;-89
2023/11/06 06:22:16;;;;;;;3.58;1.10;;;9.70;99.90;;;;;;5053400;28;20060;-90
2023/11/06 06:24:45;;;;;;;1.80;1.17;;;9.80;99.90;;;;;;5040118;28;20025;-92
2023/11/06 06:27:14;;;;;;;2.60;0.90;;;9.80;99.90;;;;;;5036290;28;20033;-92
2023/11/06 06:29:40;;;;;;;1.88;1.33;;;9.80;99.90;;;;;;5037557;28;20033;-90
2023/11/06 06:32:06;;;;;;;1.70;1.42;;;9.80;99.90;;;;;;5039298;28;20036;-89
2023/11/06 06:34:32;;;;;;;2.22;0.93;;;9.80;99.90;;;;;;5034125;28;20393;-91
2023/11/06 06:36:58;;;;;;;1.73;1.08;;;9.80;99.90;;;;;;5038094;28;20030;-91
2023/11/06 06:39:23;;;;;;;3.03;1.35;;;9.80;99.90;;;;;;5030023;28;20022;-90
2023/11/06 06:41:49;;;;;;;7.05;1.90;;;9.90;99.90;;;;;;5016188;28;20395;-91
2023/11/06 06:44:15;;;;;;;3.58;1.38;;;9.90;99.90;;;;;;5018982;28;20125;-91
2023/11/06 06:46:40;;;;;;;3.38;1.13;;;10.00;99.90;;;;;;5020696;28;20069;-92
2023/11/06 06:49:07;;;;;;;4.18;1.20;;;10.00;99.90;;;;;;5014653;28;20055;-89
2023/11/06 06:51:32;;;;;;;5.63;1.60;;;10.00;99.90;;;;;;5014865;28;20265;-91
2023/11/06 06:53:58;;;;;;;2.70;1.13;;;10.00;99.90;;;;;;5020270;28;20053;-90
2023/11/06 06:56:23;;;;;;;2.95;1.15;;;10.00;99.90;;;;;;5017224;28;20022;-90
2023/11/06 06:58:49;;;;;;;4.93;1.50;;;10.00;99.90;;;;;;5034397;28;20014;-90
2023/11/06 07:01:18;;;;;;;3.03;1.70;;;10.10;99.90;;;;;;5031216;28;20065;-90
2023/11/06 07:03:47;;;;;;;3.53;1.75;;;10.00;99.90;;;;;;5026133;28;20476;-90
2023/11/06 07:06:14;;;;;;;2.63;1.23;;;10.10;99.90;;;;;;5024549;28;20473;-91
2023/11/06 07:08:40;;;;;;;;;;;10.10;99.90;;;;;;5036168;28;20483;-91
2023/11/06 07:11:06;;;;;;;2.85;1.05;;;10.10;99.90;;;;;;5039476;28;19909;-91
2023/11/06 07:13:31;;;;;;;4.47;1.95;;;10.10;99.90;;;;;;5037108;28;20029;-92
2023/11/06 07:15:57;;;;;;;1.73;1.05;;;10.20;99.90;;;;;;5038565;28;20072;-90
2023/11/06 07:18:23;;;;;;;2.58;1.00;;;10.20;99.90;;;;;;5054176;28;20026;-91
2023/11/06 07:20:49;;;;;;;3.13;1.42;;;10.20;99.90;;;;;;5038633;28;20479;-90
2023/11/06 07:23:17;;;;;;;3.80;1.15;;;10.20;99.90;;;;;;5037684;28;20069;-91
2023/11/06 07:25:46;;;;;;;4.25;1.75;;;10.30;99.40;;;;;;5038854;28;20033;-91
2023/11/06 07:28:13;;;;;;;2.47;1.05;;;10.40;99.70;;;;;;5038182;28;20510;-90
2023/11/06 07:30:39;;;;;;;5.72;1.25;;;10.40;98.80;;;;;;5038625;28;20464;-91
2023/11/06 07:33:05;;;;;;;2.05;1.10;;;10.40;99.50;;;;;;5040816;28;20017;-91
2023/11/06 07:35:31;;;;;;;3.65;1.33;;;10.50;99.10;;;;;;5057110;28;20013;-91
2023/11/06 07:37:56;;;;;;;2.65;1.42;;;10.50;98.50;;;;;;5048527;28;20062;-91
2023/11/06 07:40:22;;;;;;;1.50;1.02;;;10.60;98.50;;;;;;5053620;28;20018;-94
2023/11/06 07:42:51;;;;;;;3.03;1.23;;;10.70;97.60;;;;;;5047615;28;20549;-91
2023/11/06 07:45:20;;;;;;;2.30;1.75;;;10.70;96.80;;;;;;5038708;28;20025;-91
2023/11/06 07:47:46;;;;;;;3.70;1.50;;;10.80;95.40;;;;;;5020208;28;20125;-91
2023/11/06 07:50:15;;;;;;;3.63;1.63;;;10.80;95.20;;;;;;5028233;28;20477;-91
2023/11/06 07:52:40;;;;;;;4.35;1.23;;;10.90;96.40;;;;;;5037840;28;20025;-91
2023/11/06 07:55:06;;;;;;;4.13;1.65;;;10.90;96.60;;;;;;5038308;28;20539;-90
2023/11/06 07:57:33;;;;;;;3.35;1.35;;;10.90;95.60;;;;;;5038523;28;20018;-91
2023/11/06 07:59:58;;;;;;;1.70;0.93;;;11.00;95.60;;;;;;5029977;28;20037;-91
2023/11/06 08:02:25;;;;;;;3.15;2.10;;;11.10;92.90;;;;;;5038401;28;20404;-90
2023/11/06 08:04:51;;;;;;;4.10;1.25;;;11.20;94.30;;;;;;5053607;28;20030;-91
2023/11/06 08:07:17;;;;;;;2.08;1.33;;;11.20;93.70;;;;;;5039315;28;20026;-92
2023/11/06 08:09:46;;;;;;;2.85;1.58;;;11.30;93.90;;;;;;5039095;28;20060;-90
2023/11/06 08:12:14;;;;;;;5.15;1.40;;;11.30;93.40;;;;;;5029409;28;20037;-92
2023/11/06 08:14:40;;;;;;;2.58;1.20;;;11.30;92.10;;;;;;5037274;28;20032;-90
2023/11/06 08:17:06;;;;;;;3.88;1.50;;;11.50;91.60;;;;;;5034034;28;20101;-90
2023/11/06 08:19:38;;;;;;;3.47;1.10;;;11.40;93.20;;;;;;5036249;28;20032;-91
2023/11/06 08:22:04;;;;;;;3.88;1.52;;;11.50;91.00;;;;;;5035609;28;20548;-91
2023/11/06 08:24:30;;;;;;;2.00;1.27;;;11.50;91.20;;;;;;5038201;28;20057;-92
2023/11/06 08:26:56;;;;;;;2.80;1.17;;;11.50;90.90;;;;;;5036085;28;20407;-93
2023/11/06 08:29:22;;;;;;;2.10;1.13;;;11.50;90.20;;;;;;5037109;28;20194;-90
2023/11/06 08:31:48;;;;;;;2.45;1.25;;;11.60;89.80;;;;;;5036714;28;20031;-90
2023/11/06 08:34:14;;;;;;;3.40;1.42;;;11.60;90.80;;;;;;5038510;28;20040;-90
2023/11/06 08:36:47;;;;;;;2.45;1.25;;;11.70;89.20;;;;;;5038253;28;20025;-91
2023/11/06 08:39:17;;;;;;;3.00;1.10;;;11.70;91.90;;;;;;5036957;28;20021;-91
2023/11/06 08:41:46;;;;;;;2.03;1.25;;;11.70;89.40;;;;;;5037156;28;20021;-91
2023/11/06 08:44:11;;;;;;;4.15;1.40;;;11.80;88.80;;;;;;5037453;28;20025;-92
2023/11/06 08:46:37;;;;;;;2.47;1.02;;;11.80;88.80;;;;;;5037606;28;20033;-91
2023/11/06 08:49:03;;;;;;;1.27;0.98;;;11.80;88.20;;;;;;5038095;28;20032;-90
2023/11/06 08:51:31;;;;;;;1.23;1.00;;;11.80;88.80;;;;;;5035349;28;20033;-91
2023/11/06 08:53:57;;;;;;;3.90;1.30;;;11.90;87.90;;;;;;5038320;28;20014;-92
2023/11/06 08:56:23;;;;;;;3.00;1.05;;;11.80;88.40;;;;;;5037348;28;20475;-91
2023/11/06 08:58:51;;;;;;;2.45;0.93;;;11.90;88.30;;;;;;5035330;28;20022;-92
2023/11/06 09:01:17;;;;;;;3.42;1.42;;;12.00;89.20;;;;;;5037781;28;20029;-91
2023/11/06 09:03:43;;;;;;;4.60;1.30;;;12.10;86.20;;;;;;5029642;28;20026;-92
2023/11/06 09:06:10;;;;;;;3.35;1.27;;;12.10;87.70;;;;;;5037997;28;20036;-92
2023/11/06 09:08:36;;;;;;;3.53;1.00;;;12.10;87.20;;;;;;5036250;28;20391;-92
2023/11/06 09:11:07;;;;;;;9.65;1.38;;;12.00;85.80;;;;;;5037488;28;20100;-90
2023/11/06 09:13:36;;;;;;;2.17;1.08;;;12.10;86.70;;;;;;5037992;28;20010;-91
2023/11/06 09:16:03;;;;;;;2.15;1.00;;;12.30;87.00;;;;;;5032168;28;20025;-92
2023/11/06 09:18:29;;;;;;;;;;;12.40;85.80;;;;;;5030656;28;20021;-92
2023/11/06 09:20:55;;;;;;;2.58;0.85;;;12.40;86.40;;;;;;5035444;28;19905;-91
2023/11/06 09:23:23;;;;;;;2.58;0.93;;;12.30;87.00;;;;;;5037659;28;20113;-91
2023/11/06 09:25:49;;;;;;;1.88;1.38;;;12.40;86.50;;;;;;5039427;28;20025;-92
2023/11/06 09:28:15;;;;;;;3.65;0.90;;;12.40;87.20;;;;;;5041512;28;20036;-92
2023/11/06 09:30:45;;;;;;;2.28;0.77;;;12.40;83.70;;;;;;5041861;28;20037;-92
2023/11/06 09:33:16;;;;;;;1.60;1.00;;;12.50;85.20;;;;;;5042013;28;20030;-90
2023/11/06 09:35:42;;;;;;;3.72;1.63;;;12.50;82.60;;;;;;5041066;28;20495;-89
2023/11/06 09:38:10;;;;;;;1.42;0.75;;;12.60;84.80;;;;;;5041288;28;20029;-91
2023/11/06 09:40:39;;;;;;;1.23;0.93;;;12.60;83.00;;;;;;5042383;28;20021;-91
2023/11/06 09:43:05;;;;;;;2.40;0.90;;;12.90;84.30;;;;;;5036804;28;20025;-91
2023/11/06 09:45:31;;;;;;;3.58;1.17;;;12.90;80.50;;;;;;5054348;28;20032;-92
2023/11/06 09:50:56;;;;;;;2.08;1.00;;;13.00;79.60;;;;;;5042257;28;20435;-91
2023/11/06 09:53:23;;;;;;;2.05;1.25;;;13.00;81.50;;;;;;5041623;28;20029;-92
2023/11/06 09:55:49;;;;;;;1.77;1.13;;;13.00;80.80;;;;;;5041500;28;20479;-91
2023/11/06 09:58:15;;;;;;;3.83;0.95;;;13.00;79.90;;;;;;5040878;28;20415;-93
2023/11/06 10:00:43;;;;;;;8.73;1.55;;;12.90;80.70;;;;;;5041391;28;20049;-91
2023/11/06 10:03:08;;;;;;;2.47;1.67;;;13.00;82.60;;;;;;5041323;28;20116;-92
2023/11/06 10:05:34;;;;;;;2.33;0.88;;;13.20;82.90;;;;;;5041245;28;20547;-92
2023/11/06 10:08:00;;;;;;;1.73;0.90;;;13.40;81.10;;;;;;5041340;28;20032;-92
2023/11/06 10:10:27;;;;;;;1.67;0.95;;;13.60;79.10;;;;;;5041622;28;20487;-93
2023/11/06 10:13:06;;;;;;;;;;;13.90;79.10;;;;;;5029773;28;20553;-91
2023/11/06 10:15:41;;;;;;;1.58;0.93;;;14.00;76.20;;;;;;5040218;28;19912;-92
2023/11/06 10:18:21;;;;;;;1.58;0.90;;;14.20;75.10;;;;;;5031230;28;20028;-92
2023/11/06 10:20:49;;;;;;;2.83;1.15;;;14.10;74.60;;;;;;5040071;28;20029;-91
2023/11/06 10:23:37;;;;;;;1.08;0.73;;;14.10;76.40;;;;;;5040392;28;20037;-92
2023/11/06 10:26:11;;;;;;;4.10;1.02;;;14.20;75.60;;;;;;5041430;28;20028;-91
2023/11/06 10:28:37;;;;;;;2.13;0.90;;;14.00;75.20;;;;;;5034374;28;20081;-92
2023/11/06 10:31:06;;;;;;;4.38;0.88;;;13.80;77.80;;;;;;5041122;28;20592;-92
2023/11/06 10:33:35;;;;;;;2.17;1.00;;;13.60;77.70;;;;;;5039197;28;20022;-89
2023/11/06 10:36:01;;;;;;;1.85;1.00;;;13.40;78.60;;;;;;5038397;28;20029;-91
2023/11/06 10:38:33;;;;;;;2.97;0.70;;;13.30;80.20;;;;;;5038829;28;20021;-93
2023/11/06 10:41:13;;;;;;;2.72;1.48;;;13.10;80.20;;;;;;5040065;28;20418;-92
2023/11/06 10:43:41;;;;;;;2.20;0.73;;;13.20;80.00;;;;;;5047192;28;20033;-92
2023/11/06 10:46:10;;;;;;;2.80;1.00;;;13.30;78.70;;;;;;5032079;28;20030;-92
2023/11/06 10:48:49;;;;;;;2.15;0.80;;;13.40;78.60;;;;;;5038852;28;20029;-92
2023/11/06 10:51:16;;;;;;;1.77;0.80;;;13.50;78.10;;;;;;5033577;28;20041;-93
2023/11/06 10:53:46;;;;;;;;;;;13.50;79.10;;;;;;5040537;28;20022;-91
2023/11/06 10:56:14;;;;;;;3.35;1.02;;;13.40;78.10;;;;;;5040686;28;19978;-92
2023/11/06 10:58:42;;;;;;;3.45;0.93;;;13.40;79.00;;;;;;5057865;28;20022;-92
2023/11/06 11:01:09;;;;;;;2.45;0.93;;;13.40;77.40;;;;;;5041493;28;20088;-90
2023/11/06 11:03:39;;;;;;;2.92;0.95;;;13.30;77.20;;;;;;5041077;28;20208;-92
2023/11/06 11:06:08;;;;;;;2.72;1.48;;;13.20;76.80;;;;;;5042318;28;20567;-91
2023/11/06 11:08:37;;;;;;;1.27;0.93;;;13.10;78.50;;;;;;5042494;28;20085;-92
2023/11/06 11:11:05;;;;;;;2.38;1.42;;;13.10;77.70;;;;;;5042535;28;20116;-91
2023/11/06 11:13:31;;;;;;;1.83;0.95;;;13.00;78.70;;;;;;5042750;28;20040;-91
2023/11/06 11:16:46;;;;;;;2.00;0.98;;;13.00;79.90;;;;;;5042277;28;20492;-92
2023/11/06 11:19:32;;;;;;;2.13;1.13;;;13.00;80.40;;;;;;5057207;28;20017;-92
2023/11/06 11:22:08;;;;;;;1.70;1.13;;;13.00;81.00;;;;;;5038745;28;20037;-93
2023/11/06 11:24:46;;;;;;;4.82;1.35;;;13.10;81.00;;;;;;5037999;28;20035;-93
2023/11/06 11:27:18;;;;;;;8.52;4.50;;;13.10;83.00;;;;;;5040006;28;20026;-92
2023/11/06 11:30:05;;;;;;;1.63;1.52;;;13.10;83.90;;;;;;5040844;28;20036;-92
2023/11/06 11:32:32;;;;;;;1.35;0.90;;;13.10;82.70;;;;;;5041471;28;20033;-93
2023/11/06 11:35:19;;;;;;;3.10;0.82;;;13.10;82.80;;;;;;5028267;28;20044;-91
2023/11/06 11:37:58;;;;;;;1.65;1.27;;;13.10;81.50;;;;;;5044340;28;20049;-92
2023/11/06 11:40:50;;;;;;;3.20;1.45;;;13.10;82.10;;;;;;5019541;28;20042;-91
2023/11/06 11:43:36;;;;;;;2.42;1.10;;;13.00;81.50;;;;;;5019263;28;20056;-92
2023/11/06 11:46:02;;;;;;;1.10;0.90;;;13.00;81.40;;;;;;5013510;28;20030;-91
2023/11/06 11:48:52;;;;;;;1.27;1.15;;;12.90;81.20;;;;;;5018795;28;20029;-92
2023/11/06 11:51:49;;;;;;;3.33;1.75;;;12.90;81.70;;;;;;5041097;28;20500;-90
2023/11/06 11:54:32;;;;;;;1.58;0.90;;;12.90;82.00;;;;;;5033442;28;20055;-91
2023/11/06 11:57:12;;;;;;;2.45;0.93;;;12.90;83.20;;;;;;5096245;28;20475;-93
2023/11/06 11:59:40;;;;;;;1.23;1.13;;;12.80;84.50;;;;;;5078562;28;20033;-92
2023/11/06 12:02:07;;;;;;;;;;;12.80;85.80;;;;;;5077996;28;20051;-93
2023/11/06 12:04:33;;;;;;;1.85;0.70;;;12.70;85.20;;;;;;5060928;28;19931;-94
2023/11/06 12:06:58;;;;;;;0.85;0.70;;;12.60;86.00;;;;;;5061991;28;20097;-94
2023/11/06 12:09:27;;;;;;;1.77;1.15;;;12.60;86.70;;;;;;5059140;28;20041;-92
2023/11/06 12:11:53;;;;;;;1.27;1.17;;;12.50;86.90;;;;;;5079557;28;20028;-94
2023/11/06 12:14:19;;;;;;;1.33;1.08;;;12.50;87.80;;;;;;5062830;28;20029;-92
2023/11/06 12:17:09;;;;;;;0.98;0.73;;;12.50;88.50;;;;;;5060451;28;20020;-94
2023/11/06 12:19:39;;;;;;;1.23;1.02;;;12.50;89.10;;;;;;5078727;28;20070;-94
2023/11/06 12:22:05;;;;;;;0.88;0.88;;;12.50;88.70;;;;;;5068222;28;20021;-92
2023/11/06 12:24:31;;;;;;;1.75;0.68;;;12.50;89.40;;;;;;5080196;28;20038;-95
2023/11/06 12:27:00;;;;;;;1.70;1.35;;;12.60;90.30;;;;;;5056854;28;20086;-94
2023/11/06 12:29:29;;;;;;;1.25;1.00;;;12.70;89.30;;;;;;5055083;28;20418;-93
2023/11/06 12:32:18;;;;;;;2.08;0.93;;;12.60;89.30;;;;;;5075326;28;20021;-92
2023/11/06 12:34:43;;;;;;;2.65;1.00;;;12.60;88.90;;;;;;5073975;28;20029;-92
2023/11/06 12:37:09;;;;;;;1.80;1.67;;;12.50;90.00;;;;;;5074998;28;20039;-93
2023/11/06 12:39:37;;;;;;;2.67;1.67;;;12.50;88.60;;;;;;5059522;28;20020;-92
2023/11/06 12:42:12;;;;;;;0.80;0.63;;;12.50;87.40;;;;;;5058718;28;20041;-93
2023/11/06 12:44:40;;;;;;;1.73;0.70;;;12.50;88.50;;;;;;5074411;28;20025;-93
2023/11/06 12:47:13;;;;;;;1.95;0.82;;;12.60;88.30;;;;;;5068435;28;20039;-95
2023/11/06 12:49:54;;;;;;;1.25;1.10;;;12.60;88.10;;;;;;5075058;28;20013;-92
2023/11/06 12:52:21;;;;;;;1.00;0.90;;;12.60;88.90;;;;;;5065732;28;20017;-95
2023/11/06 12:54:58;;;;;;;2.40;0.88;;;12.60;87.80;;;;;;5068958;28;20016;-92
2023/11/06 12:57:29;;;;;;;2.13;1.15;;;12.50;87.80;;;;;;5090011;28;20048;-93